createdAt,value
2019-02-09T00:00:49.683Z,84.13
2019-02-09T00:01:49.762Z,84.64
2019-02-09T00:02:49.732Z,85.71
2019-02-09T00:03:49.656Z,84.58
2019-02-09T00:04:49.669Z,84.23
2019-02-09T00:05:49.629Z,85.20
2019-02-09T00:06:49.613Z,84.99
2019-02-09T00:07:49.677Z,85.10
2019-02-09T00:08:49.586Z,85.82
2019-02-09T00:09:49.588Z,85.92
2019-02-09T00:10:49.564Z,86.06
2019-02-09T00:11:49.581Z,85.51
2019-02-09T00:12:49.560Z,85.10
2019-02-09T00:13:49.632Z,85.96
2019-02-09T00:14:49.536Z,85.44
2019-02-09T00:15:49.520Z,84.27
2019-02-09T00:16:49.500Z,84.21
2019-02-09T00:17:49.593Z,84.38
2019-02-09T00:18:49.528Z,84.79
2019-02-09T00:19:49.470Z,84.89
2019-02-09T00:20:49.486Z,84.69
2019-02-09T00:21:49.461Z,85.75
2019-02-09T00:22:49.440Z,84.48
2019-02-09T00:23:49.432Z,84.38
2019-02-09T00:24:49.457Z,84.52
2019-02-09T00:25:49.396Z,84.38
2019-02-09T00:26:49.382Z,84.17
2019-02-09T00:27:49.475Z,83.97
2019-02-09T00:28:49.399Z,84.48
2019-02-09T00:29:49.393Z,84.38
2019-02-09T00:30:49.341Z,84.07
2019-02-09T00:31:49.372Z,83.76
2019-02-09T00:32:49.341Z,84.27
2019-02-09T00:33:49.324Z,83.86
2019-02-09T00:34:49.325Z,83.97
2019-02-09T00:35:49.291Z,84.07
2019-02-09T00:36:49.280Z,84.07
2019-02-09T00:37:49.301Z,84.58
2019-02-09T00:38:49.289Z,84.38
2019-02-09T00:39:49.247Z,84.79
2019-02-09T00:40:49.264Z,85.10
2019-02-09T00:41:49.222Z,85.30
2019-02-09T00:42:49.206Z,85.41
2019-02-09T00:43:49.226Z,85.51
2019-02-09T00:44:49.199Z,85.75
2019-02-09T00:45:49.204Z,85.75
2019-02-09T00:46:49.175Z,86.02
2019-02-09T00:47:49.201Z,86.58
2019-02-09T00:48:49.196Z,86.68
2019-02-09T00:49:49.136Z,86.37
2019-02-09T00:50:49.125Z,86.79
2019-02-09T00:51:49.139Z,87.51
2019-02-09T00:52:49.317Z,87.19
2019-02-09T00:53:49.158Z,88.53
2019-02-09T00:54:49.678Z,87.71
2019-02-09T00:55:49.069Z,88.02
2019-02-09T00:56:49.071Z,88.53
2019-02-09T00:57:49.162Z,87.51
2019-02-09T00:58:49.029Z,87.85
2019-02-09T00:59:53.959Z,88.26
2019-02-09T01:00:50.206Z,88.33
2019-02-09T01:01:49.016Z,87.96
2019-02-09T01:02:48.986Z,89.36
2019-02-09T01:03:49.007Z,88.17
2019-02-09T01:04:49.043Z,88.57
2019-02-09T01:05:48.949Z,88.57
2019-02-09T01:06:48.961Z,89.29
2019-02-09T01:07:48.972Z,88.68
2019-02-09T01:08:48.963Z,88.26
2019-02-09T01:09:48.984Z,88.37
2019-02-09T01:10:48.954Z,88.57
2019-02-09T01:11:48.940Z,89.19
2019-02-09T01:12:49.058Z,88.17
2019-02-09T01:13:49.049Z,88.47
2019-02-09T01:14:48.892Z,88.26
2019-02-09T01:15:48.936Z,89.19
2019-02-09T01:16:48.850Z,88.57
2019-02-09T01:17:48.879Z,89.40
2019-02-09T01:18:48.824Z,88.17
2019-02-09T01:19:48.805Z,88.78
2019-02-09T01:20:48.838Z,89.40
2019-02-09T01:21:48.782Z,89.81
2019-02-09T01:22:48.807Z,89.61
2019-02-09T01:23:48.767Z,89.95
2019-02-09T01:24:48.742Z,89.91
2019-02-09T01:25:48.774Z,89.29
2019-02-09T01:26:48.773Z,88.47
2019-02-09T01:27:48.722Z,88.99
2019-02-09T01:28:48.696Z,89.71
2019-02-09T01:29:48.710Z,89.81
2019-02-09T01:30:48.726Z,89.91
2019-02-09T01:31:49.414Z,90.47
2019-02-09T01:32:48.687Z,90.43
2019-02-09T01:33:48.646Z,90.37
2019-02-09T01:34:48.706Z,90.53
2019-02-09T01:35:48.625Z,90.26
2019-02-09T01:36:48.617Z,90.47
2019-02-09T01:37:48.609Z,89.54
2019-02-09T01:38:48.589Z,89.54
2019-02-09T01:39:48.661Z,89.44
2019-02-09T01:40:48.589Z,89.34
2019-02-09T01:41:48.819Z,89.40
2019-02-09T01:42:48.543Z,90.12
2019-02-09T01:43:48.732Z,89.34
2019-02-09T01:44:48.517Z,89.40
2019-02-09T01:45:48.515Z,89.44
2019-02-09T01:46:48.547Z,89.34
2019-02-09T01:47:48.513Z,88.51
2019-02-09T01:48:48.517Z,88.31
2019-02-09T01:49:48.485Z,89.65
2019-02-09T01:50:48.521Z,89.50
2019-02-09T01:51:48.571Z,88.72
2019-02-09T01:52:48.430Z,88.17
2019-02-09T01:53:49.335Z,88.06
2019-02-09T01:54:49.275Z,88.37
2019-02-09T01:55:48.398Z,88.06
2019-02-09T01:56:48.400Z,88.37
2019-02-09T01:57:48.376Z,88.51
2019-02-09T01:58:48.515Z,88.20
2019-02-09T01:59:48.369Z,87.38
2019-02-09T02:00:48.396Z,87.24
2019-02-09T02:01:48.364Z,87.54
2019-02-09T02:02:48.320Z,87.75
2019-02-09T02:03:48.343Z,88.37
2019-02-09T02:04:48.305Z,88.17
2019-02-09T02:05:48.292Z,87.75
2019-02-09T02:06:48.279Z,88.06
2019-02-09T02:07:48.375Z,88.68
2019-02-09T02:08:48.246Z,88.82
2019-02-09T02:09:48.267Z,89.34
2019-02-09T02:10:48.231Z,89.03
2019-02-09T02:11:48.258Z,89.54
2019-02-09T02:12:48.209Z,89.54
2019-02-09T02:13:48.214Z,89.65
2019-02-09T02:14:48.223Z,89.95
2019-02-09T02:15:48.192Z,90.16
2019-02-09T02:16:48.164Z,89.75
2019-02-09T02:17:48.152Z,89.79
2019-02-09T02:18:48.148Z,90.20
2019-02-09T02:19:48.127Z,90.51
2019-02-09T02:20:48.141Z,89.89
2019-02-09T02:21:48.105Z,90.51
2019-02-09T02:22:48.148Z,91.03
2019-02-09T02:23:48.117Z,90.88
2019-02-09T02:24:48.094Z,91.40
2019-02-09T02:25:48.350Z,90.82
2019-02-09T02:26:48.166Z,90.51
2019-02-09T02:27:48.048Z,90.51
2019-02-09T02:28:48.030Z,90.20
2019-02-09T02:29:48.034Z,89.95
2019-02-09T02:30:48.024Z,89.38
2019-02-09T02:31:48.037Z,89.54
2019-02-09T02:32:48.027Z,89.34
2019-02-09T02:33:47.976Z,89.95
2019-02-09T02:34:48.814Z,89.54
2019-02-09T02:35:47.953Z,89.54
2019-02-09T02:36:47.945Z,89.34
2019-02-09T02:37:47.923Z,89.38
2019-02-09T02:38:47.969Z,89.34
2019-02-09T02:39:47.914Z,89.34
2019-02-09T02:40:47.957Z,88.72
2019-02-09T02:41:47.900Z,88.92
2019-02-09T02:42:47.874Z,89.54
2019-02-09T02:43:47.868Z,89.13
2019-02-09T02:44:47.915Z,88.20
2019-02-09T02:45:47.869Z,89.34
2019-02-09T02:46:47.845Z,89.44
2019-02-09T02:47:47.835Z,89.54
2019-02-09T02:48:47.820Z,88.41
2019-02-09T02:49:47.863Z,89.34
2019-02-09T02:50:47.817Z,89.03
2019-02-09T02:51:48.180Z,89.03
2019-02-09T02:52:47.776Z,88.20
2019-02-09T02:53:47.750Z,88.41
2019-02-09T02:54:47.739Z,88.68
2019-02-09T02:55:47.730Z,88.62
2019-02-09T02:56:47.768Z,87.90
2019-02-09T02:57:48.664Z,87.54
2019-02-09T02:58:47.713Z,87.75
2019-02-09T02:59:47.684Z,87.34
2019-02-09T03:00:47.670Z,87.75
2019-02-09T03:01:47.683Z,87.44
2019-02-09T03:02:47.662Z,87.13
2019-02-09T03:03:47.655Z,86.37
2019-02-09T03:04:47.689Z,86.58
2019-02-09T03:05:47.906Z,86.41
2019-02-09T03:06:47.956Z,86.93
2019-02-09T03:07:47.608Z,86.61
2019-02-09T03:08:48.256Z,86.72
2019-02-09T03:09:47.581Z,86.58
2019-02-09T03:10:47.573Z,86.61
2019-02-09T03:11:47.577Z,86.00
2019-02-09T03:12:47.545Z,86.58
2019-02-09T03:13:47.561Z,86.72
2019-02-09T03:14:47.522Z,86.00
2019-02-09T03:15:47.515Z,86.79
2019-02-09T03:16:47.502Z,86.06
2019-02-09T03:17:47.531Z,86.37
2019-02-09T03:18:47.494Z,85.96
2019-02-09T03:19:47.472Z,85.86
2019-02-09T03:20:47.469Z,85.75
2019-02-09T03:21:47.448Z,85.44
2019-02-09T03:22:47.533Z,85.44
2019-02-09T03:23:47.461Z,85.86
2019-02-09T03:24:47.421Z,85.24
2019-02-09T03:25:47.404Z,85.55
2019-02-09T03:26:47.380Z,84.72
2019-02-09T03:27:47.376Z,85.24
2019-02-09T03:28:47.365Z,85.75
2019-02-09T03:29:47.471Z,85.75
2019-02-09T03:30:48.810Z,85.65
2019-02-09T03:31:49.348Z,86.06
2019-02-09T03:32:48.201Z,85.86
2019-02-09T03:33:47.357Z,85.65
2019-02-09T03:34:47.366Z,85.69
2019-02-09T03:35:47.318Z,85.96
2019-02-09T03:36:47.388Z,86.00
2019-02-09T03:37:47.358Z,85.96
2019-02-09T03:38:47.267Z,85.79
2019-02-09T03:39:48.258Z,86.47
2019-02-09T03:40:47.268Z,86.52
2019-02-09T03:41:47.223Z,86.31
2019-02-09T03:42:47.356Z,86.52
2019-02-09T03:43:47.261Z,85.75
2019-02-09T03:44:47.276Z,85.69
2019-02-09T03:45:47.216Z,86.00
2019-02-09T03:48:01.015Z,85.86
2019-02-09T03:48:59.326Z,85.34
2019-02-09T03:49:59.935Z,85.49
2019-02-09T03:50:59.205Z,85.55
2019-02-09T03:52:00.754Z,86.00
2019-02-09T03:54:22.204Z,85.34
2019-02-09T03:55:20.986Z,86.37
2019-02-09T03:56:20.893Z,86.37
2019-02-09T03:57:21.046Z,85.65
2019-02-09T03:58:20.785Z,86.06
2019-02-09T03:59:20.774Z,86.06
2019-02-09T04:00:20.805Z,86.16
2019-02-09T04:01:20.725Z,86.68
2019-02-09T04:02:20.748Z,85.65
2019-02-09T04:03:20.714Z,85.44
2019-02-09T04:04:21.373Z,85.86
2019-02-09T04:05:20.723Z,85.14
2019-02-09T04:06:20.673Z,85.34
2019-02-09T04:07:20.684Z,85.24
2019-02-09T04:08:20.674Z,85.55
2019-02-09T04:09:20.639Z,85.44
2019-02-09T04:10:20.655Z,85.24
2019-02-09T04:11:20.781Z,85.96
2019-02-09T04:12:20.732Z,85.96
2019-02-09T04:13:21.592Z,85.65
2019-02-09T04:14:20.593Z,84.83
2019-02-09T04:15:20.591Z,84.62
2019-02-09T04:16:20.642Z,85.61
2019-02-09T04:17:20.599Z,85.24
2019-02-09T04:18:20.707Z,85.34
2019-02-09T04:19:20.544Z,85.41
2019-02-09T04:20:20.620Z,85.71
2019-02-09T04:21:20.612Z,84.79
2019-02-09T04:22:20.499Z,83.97
2019-02-09T04:23:20.550Z,84.38
2019-02-09T04:24:20.468Z,84.38
2019-02-09T04:25:20.492Z,85.41
2019-02-09T04:26:20.504Z,85.61
2019-02-09T04:27:22.376Z,85.20
2019-02-09T04:28:20.432Z,84.79
2019-02-09T04:29:21.117Z,85.51
2019-02-09T04:30:20.439Z,85.51
2019-02-09T04:31:20.399Z,85.61
2019-02-09T04:32:20.512Z,86.13
2019-02-09T04:33:20.422Z,85.30
2019-02-09T04:34:20.447Z,85.30
2019-02-09T04:35:20.359Z,85.61
2019-02-09T04:36:20.352Z,85.61
2019-02-09T04:37:20.416Z,85.10
2019-02-09T04:38:20.342Z,85.71
2019-02-09T04:39:21.850Z,85.71
2019-02-09T04:40:20.329Z,84.79
2019-02-09T04:41:20.284Z,84.17
2019-02-09T04:42:29.353Z,84.17
2019-02-09T04:43:20.635Z,84.79
2019-02-09T04:44:20.376Z,84.48
2019-02-09T04:45:20.516Z,84.07
2019-02-09T04:46:20.473Z,83.55
2019-02-09T04:47:20.547Z,83.76
2019-02-09T04:49:48.599Z,83.55
2019-02-09T04:50:48.155Z,83.20
2019-02-09T04:51:48.386Z,83.04
2019-02-09T04:52:48.099Z,84.23
2019-02-09T04:55:18.257Z,83.20
2019-02-09T04:56:14.472Z,82.39
2019-02-09T04:57:16.404Z,82.39
2019-02-09T04:58:15.190Z,82.69
2019-02-09T04:59:14.170Z,82.18
2019-02-09T05:00:14.321Z,81.67
2019-02-09T05:01:14.407Z,81.56
2019-02-09T05:03:34.189Z,81.87
2019-02-09T05:04:34.118Z,82.07
2019-02-09T05:05:34.068Z,82.48
2019-02-09T05:06:34.013Z,81.87
2019-02-09T05:07:34.507Z,81.87
2019-02-09T05:08:33.773Z,81.97
2019-02-09T05:09:33.995Z,82.59
2019-02-09T05:10:33.790Z,82.59
2019-02-09T05:11:33.755Z,82.63
2019-02-09T05:12:34.012Z,82.73
2019-02-09T05:13:33.731Z,82.32
2019-02-09T05:14:33.827Z,82.11
2019-02-09T05:15:33.728Z,82.42
2019-02-09T05:16:33.715Z,81.70
2019-02-09T05:17:33.675Z,81.39
2019-02-09T05:18:34.540Z,80.74
2019-02-09T05:19:33.698Z,81.25
2019-02-09T05:20:33.812Z,80.77
2019-02-09T05:21:33.640Z,80.47
2019-02-09T05:22:33.708Z,80.63
2019-02-09T05:23:33.624Z,80.67
2019-02-09T05:24:33.723Z,80.88
2019-02-09T05:25:33.826Z,80.57
2019-02-09T05:26:33.626Z,80.47
2019-02-09T05:27:33.686Z,81.49
2019-02-09T05:28:33.566Z,82.53
2019-02-09T05:29:33.575Z,82.63
2019-02-09T05:30:33.576Z,83.35
2019-02-09T05:31:33.534Z,84.17
2019-02-09T05:32:33.531Z,84.31
2019-02-09T05:34:45.384Z,84.00
2019-02-09T05:35:44.328Z,85.86
2019-02-09T05:36:44.479Z,86.27
2019-02-09T05:37:44.308Z,86.68
2019-02-09T05:38:44.300Z,87.65
2019-02-09T05:39:44.186Z,87.75
2019-02-09T05:40:44.199Z,88.06
2019-02-09T05:41:44.271Z,89.50
2019-02-09T05:42:44.161Z,88.57
2019-02-09T05:43:44.141Z,88.51
2019-02-09T05:44:44.133Z,88.72
2019-02-09T05:45:44.286Z,89.23
2019-02-09T05:46:44.098Z,88.72
2019-02-09T05:47:44.095Z,89.34
2019-02-09T05:48:44.252Z,88.31
2019-02-09T05:49:44.136Z,88.51
2019-02-09T05:50:44.191Z,88.62
2019-02-09T05:51:44.068Z,88.31
2019-02-09T05:52:44.077Z,88.62
2019-02-09T05:53:44.124Z,88.41
2019-02-09T05:54:44.042Z,88.86
2019-02-09T05:55:44.152Z,88.56
2019-02-09T05:56:43.997Z,88.31
2019-02-09T05:57:44.000Z,88.51
2019-02-09T05:58:47.484Z,88.35
2019-02-09T05:59:44.125Z,88.20
2019-02-09T06:00:44.016Z,88.20
2019-02-09T06:01:44.407Z,88.31
2019-02-09T06:04:27.110Z,86.76
2019-02-09T06:05:26.684Z,85.79
2019-02-09T06:06:26.482Z,86.15
2019-02-09T06:07:26.617Z,85.79
2019-02-09T06:08:26.277Z,85.28
2019-02-09T06:09:26.238Z,85.38
2019-02-09T06:55:48.433Z,78.37
2019-02-09T07:17:35.216Z,78.27
2019-02-09T07:18:33.314Z,78.37
2019-02-09T07:19:33.422Z,77.86
2019-02-09T07:20:33.282Z,77.96
2019-02-09T07:21:33.689Z,78.58
2019-02-09T07:22:33.400Z,78.47
2019-02-09T07:23:33.305Z,78.37
2019-02-09T07:24:33.100Z,78.78
2019-02-09T07:25:33.138Z,80.67
2019-02-09T07:26:33.324Z,79.40
2019-02-09T07:27:33.107Z,80.12
2019-02-09T07:28:33.322Z,80.05
2019-02-09T07:29:33.058Z,79.75
2019-02-09T07:30:33.687Z,79.85
2019-02-09T07:31:33.005Z,80.43
2019-02-09T07:32:33.317Z,80.33
2019-02-09T07:33:33.849Z,80.36
2019-02-09T07:34:33.120Z,80.98
2019-02-09T07:35:33.038Z,80.67
2019-02-09T07:36:32.944Z,80.98
2019-02-09T07:37:33.107Z,79.85
2019-02-09T07:38:33.795Z,80.16
2019-02-09T07:39:33.236Z,80.26
2019-02-09T07:40:33.117Z,79.75
2019-02-09T07:42:44.596Z,80.05
2019-02-09T07:43:44.100Z,80.26
2019-02-09T07:44:44.247Z,80.26
2019-02-09T07:45:44.160Z,79.85
2019-02-09T07:48:13.382Z,80.16
2019-02-09T07:49:13.106Z,79.64
2019-02-09T07:50:13.027Z,79.44
2019-02-09T07:51:12.803Z,78.51
2019-02-09T07:52:13.482Z,76.21
2019-02-09T07:56:30.464Z,78.27
2019-02-09T07:57:30.224Z,79.03
2019-02-09T07:58:30.609Z,80.16
2019-02-09T07:59:31.117Z,79.85
2019-02-09T08:00:30.715Z,79.79
2019-02-09T08:01:31.382Z,79.99
2019-02-09T08:02:32.961Z,80.30
2019-02-09T08:03:30.044Z,80.71
2019-02-09T08:04:29.909Z,80.95
2019-02-09T08:05:29.864Z,80.54
2019-02-09T08:06:30.108Z,81.53
2019-02-09T08:09:37.582Z,82.46
2019-02-09T08:10:36.993Z,82.60
2019-02-09T08:11:37.041Z,82.70
2019-02-09T08:12:36.925Z,82.81
2019-02-09T08:13:36.755Z,83.53
2019-02-09T08:14:37.393Z,83.32
2019-02-09T08:15:36.889Z,83.01
2019-02-09T08:16:36.947Z,83.42
2019-02-09T08:19:02.420Z,83.12
2019-02-09T08:20:01.829Z,83.36
2019-02-09T08:22:14.175Z,83.12
2019-02-09T08:23:13.810Z,83.12
2019-02-09T08:24:13.747Z,82.91
2019-02-09T08:25:13.763Z,82.40
2019-02-09T08:26:13.808Z,82.60
2019-02-09T08:27:13.522Z,82.50
2019-02-09T08:28:14.028Z,82.46
2019-02-09T08:29:14.495Z,82.67
2019-02-09T08:30:13.451Z,82.05
2019-02-09T08:31:14.344Z,82.87
2019-02-09T08:32:26.289Z,82.46
2019-02-09T08:33:13.951Z,82.77
2019-02-09T08:34:13.516Z,81.95
2019-02-09T08:35:13.542Z,80.71
2019-02-09T08:36:13.622Z,80.47
2019-02-09T08:37:25.822Z,80.47
2019-02-09T08:38:13.524Z,80.16
2019-02-09T08:39:13.391Z,80.36
2019-02-09T08:40:14.970Z,80.36
2019-02-09T08:41:13.333Z,80.98
2019-02-09T08:42:13.317Z,79.85
2019-02-09T08:43:13.299Z,79.95
2019-02-09T08:44:27.878Z,79.85
2019-02-09T08:45:13.295Z,80.16
2019-02-09T08:46:13.252Z,79.30
2019-02-09T08:47:13.304Z,79.09
2019-02-09T08:48:17.786Z,78.89
2019-02-09T08:50:30.241Z,79.16
2019-02-09T08:51:29.940Z,78.13
2019-02-09T08:52:29.921Z,78.44
2019-02-09T08:53:29.779Z,78.33
2019-02-09T08:55:49.444Z,78.44
2019-02-09T08:56:48.210Z,78.03
2019-02-09T08:57:48.289Z,78.23
2019-02-09T08:58:48.165Z,77.82
2019-02-09T08:59:48.032Z,79.16
2019-02-09T09:00:48.123Z,78.13
2019-02-09T09:01:48.065Z,77.92
2019-02-09T09:02:48.015Z,78.33
2019-02-09T09:03:48.019Z,78.03
2019-02-09T09:04:47.980Z,77.82
2019-02-09T09:05:48.042Z,77.92
2019-02-09T09:06:48.606Z,78.13
2019-02-09T09:07:47.954Z,77.72
2019-02-09T09:12:04.670Z,78.85
2019-02-09T09:13:05.065Z,78.44
2019-02-09T09:14:06.102Z,78.03
2019-02-09T09:15:04.479Z,77.92
2019-02-09T09:16:05.088Z,78.23
2019-02-09T09:17:04.086Z,77.99
2019-02-09T09:18:06.728Z,77.78
2019-02-09T09:19:05.332Z,77.48
2019-02-09T09:20:04.081Z,76.76
2019-02-09T09:21:04.034Z,78.09
2019-02-09T09:22:04.131Z,76.86
2019-02-09T09:23:04.026Z,76.55
2019-02-09T09:24:04.044Z,76.86
2019-02-09T09:25:05.016Z,76.65
2019-02-09T09:26:03.970Z,75.38
2019-02-09T09:27:03.960Z,76.10
2019-02-09T09:28:03.993Z,76.21
2019-02-09T09:29:04.643Z,74.15
2019-02-09T09:30:04.721Z,75.08
2019-02-09T09:31:03.921Z,74.05
2019-02-09T09:32:03.907Z,74.77
2019-02-09T09:33:03.944Z,74.87
2019-02-09T09:34:03.905Z,74.26
2019-02-09T09:35:04.005Z,74.32
2019-02-09T09:36:06.790Z,74.12
2019-02-09T09:42:30.713Z,72.14
2019-02-09T09:43:31.260Z,71.72
2019-02-09T09:44:30.662Z,71.93
2019-02-09T09:45:30.549Z,71.31
2019-02-09T09:46:32.529Z,71.59
2019-02-09T09:47:30.621Z,70.87
2019-02-09T09:48:35.262Z,70.15
2019-02-09T09:49:30.447Z,69.84
2019-02-09T09:50:30.526Z,69.64
2019-02-09T09:51:30.789Z,70.46
2019-02-09T09:52:30.423Z,69.13
2019-02-09T09:59:10.738Z,68.27
2019-02-09T10:00:09.665Z,67.66
2019-02-09T10:01:05.856Z,69.13
2019-02-09T10:13:55.453Z,69.13
2019-02-09T10:14:57.026Z,68.82
2019-02-09T10:30:16.700Z,69.13
2019-02-09T10:32:33.746Z,67.79
2019-02-09T10:36:08.240Z,67.38
2019-02-09T10:42:17.817Z,66.63
2019-02-09T10:43:17.716Z,67.08
2019-02-09T10:44:17.442Z,66.94
2019-02-09T10:45:17.436Z,67.38
2019-02-09T10:46:18.595Z,67.05
2019-02-09T10:47:17.353Z,66.22
2019-02-09T10:48:17.323Z,66.46
2019-02-09T10:49:17.620Z,66.87
2019-02-09T10:50:18.393Z,66.43
2019-02-09T10:51:17.301Z,66.94
2019-02-09T10:52:19.031Z,66.74
2019-02-09T10:53:17.272Z,66.63
2019-02-09T10:54:17.274Z,66.43
2019-02-09T10:55:17.449Z,66.12
2019-02-09T10:56:17.241Z,66.63
2019-02-09T10:57:17.256Z,66.22
2019-02-09T10:58:17.207Z,66.02
2019-02-09T10:59:17.197Z,66.02
2019-02-09T11:00:17.229Z,67.73
2019-02-09T11:01:17.179Z,66.50
2019-02-09T11:02:17.599Z,65.37
2019-02-09T11:03:17.333Z,66.09
2019-02-09T11:04:17.156Z,65.89
2019-02-09T11:05:17.132Z,66.09
2019-02-09T11:06:17.120Z,65.99
2019-02-09T11:07:17.277Z,65.48
2019-02-09T11:08:18.128Z,64.65
2019-02-09T11:09:19.015Z,65.27
2019-02-09T11:10:17.109Z,64.25
2019-02-09T11:11:17.079Z,64.35
2019-02-09T11:12:17.525Z,64.45
2019-02-09T11:13:17.034Z,65.58
2019-02-09T11:14:17.104Z,64.35
2019-02-09T11:15:17.015Z,65.20
2019-02-09T11:16:17.064Z,65.61
2019-02-09T11:18:41.621Z,65.92
2019-02-09T11:19:41.235Z,65.78
2019-02-09T11:20:41.572Z,65.37
2019-02-09T11:21:41.027Z,65.17
2019-02-09T11:22:40.947Z,65.20
2019-02-09T11:23:41.678Z,65.58
2019-02-09T11:24:41.210Z,66.30
2019-02-09T11:25:41.014Z,65.48
2019-02-09T11:26:40.908Z,64.86
2019-02-09T11:27:40.943Z,66.09
2019-02-09T11:28:40.931Z,65.78
2019-02-09T11:29:41.670Z,65.48
2019-02-09T11:30:41.537Z,64.76
2019-02-09T11:31:40.879Z,64.56
2019-02-09T11:32:40.836Z,64.53
2019-02-09T11:33:40.910Z,64.76
2019-02-09T11:34:40.812Z,64.76
2019-02-09T11:35:40.801Z,64.97
2019-02-09T11:36:40.838Z,65.78
2019-02-09T11:37:40.829Z,65.48
2019-02-09T11:38:40.841Z,65.27
2019-02-09T11:39:40.764Z,65.58
2019-02-09T11:40:40.872Z,65.89
2019-02-09T11:41:40.749Z,65.92
2019-02-09T11:42:40.870Z,65.81
2019-02-09T11:43:41.546Z,66.19
2019-02-09T11:44:41.319Z,66.43
2019-02-09T11:45:41.503Z,66.43
2019-02-09T11:46:40.863Z,67.43
2019-02-09T11:47:40.797Z,66.84
2019-02-09T11:48:40.885Z,66.94
2019-02-09T11:52:41.529Z,67.66
2019-02-09T11:53:41.295Z,67.56
2019-02-09T11:54:41.122Z,67.56
2019-02-09T12:07:07.317Z,66.16
2019-02-09T12:07:58.511Z,65.34
2019-02-09T12:11:25.624Z,64.29
2019-02-09T12:12:25.718Z,64.90
2019-02-09T12:13:25.426Z,64.90
2019-02-09T12:14:25.118Z,65.42
2019-02-09T12:15:25.120Z,65.49
2019-02-09T12:16:25.050Z,64.60
2019-02-09T12:17:25.022Z,63.57
2019-02-09T12:18:26.573Z,63.85
2019-02-09T12:19:24.991Z,64.26
2019-02-09T12:20:24.995Z,63.65
2019-02-09T12:21:35.657Z,63.68
2019-02-09T12:22:24.981Z,64.09
2019-02-09T12:23:25.019Z,63.68
2019-02-09T12:24:24.975Z,63.68
2019-02-09T12:25:25.602Z,64.16
2019-02-09T12:26:24.935Z,63.17
2019-02-09T12:27:24.939Z,63.75
2019-02-09T12:28:24.933Z,63.03
2019-02-09T12:29:25.043Z,63.03
2019-02-09T12:30:24.940Z,62.93
2019-02-09T12:31:24.975Z,63.44
2019-02-09T12:32:24.862Z,62.42
2019-02-09T12:33:24.892Z,63.03
2019-02-09T12:34:27.647Z,63.03
2019-02-09T12:35:24.889Z,62.65
2019-02-09T12:36:24.836Z,62.96
2019-02-09T12:37:24.805Z,62.52
2019-02-09T12:38:25.030Z,63.75
2019-02-09T12:39:25.099Z,62.65
2019-02-09T12:40:24.919Z,62.24
2019-02-09T12:41:24.785Z,63.37
2019-02-09T12:42:24.833Z,63.17
2019-02-09T12:43:24.846Z,63.78
2019-02-09T12:44:24.729Z,63.47
2019-02-09T12:45:24.732Z,63.88
2019-02-09T12:46:26.596Z,64.29
2019-02-09T12:47:24.684Z,63.68
2019-02-09T12:48:24.873Z,63.98
2019-02-09T12:49:26.620Z,63.65
2019-02-09T12:50:24.714Z,63.68
2019-02-09T12:51:25.080Z,62.93
2019-02-09T12:52:24.668Z,63.03
2019-02-09T12:53:24.623Z,62.83
2019-02-09T12:54:29.592Z,62.42
2019-02-09T12:55:24.643Z,62.01
2019-02-09T12:56:25.008Z,62.42
2019-02-09T12:57:24.654Z,62.21
2019-02-09T12:58:25.147Z,61.70
2019-02-09T12:59:24.626Z,61.70
2019-02-09T13:00:26.136Z,61.63
2019-02-09T13:01:24.564Z,61.93
2019-02-09T13:02:24.527Z,62.55
2019-02-09T13:03:31.042Z,62.76
2019-02-09T13:06:19.484Z,62.35
2019-02-09T13:07:18.658Z,62.85
2019-02-09T13:08:18.588Z,62.85
2019-02-09T13:09:18.631Z,62.96
2019-02-09T13:10:18.768Z,62.85
2019-02-09T13:11:20.547Z,62.48
2019-02-09T13:12:18.447Z,63.09
2019-02-09T13:13:18.440Z,62.99
2019-02-09T13:14:18.476Z,64.01
2019-02-09T13:15:18.489Z,64.39
2019-02-09T13:16:18.425Z,64.73
2019-02-09T13:17:18.420Z,64.62
2019-02-09T13:18:18.384Z,65.31
2019-02-09T13:19:18.466Z,64.73
2019-02-09T13:20:18.499Z,64.73
2019-02-09T13:21:18.486Z,64.83
2019-02-09T13:22:19.375Z,66.88
2019-02-09T13:23:18.483Z,69.17
2019-02-09T13:24:19.196Z,72.00
2019-02-09T13:25:18.353Z,73.95
2019-02-09T13:26:18.422Z,75.93
2019-02-09T13:27:18.278Z,79.91
2019-02-09T13:28:18.430Z,79.43
2019-02-09T13:29:18.250Z,80.15
2019-02-09T13:30:18.316Z,82.24
2019-02-09T13:33:05.259Z,81.25
2019-02-09T13:34:05.119Z,82.63
2019-02-09T13:36:16.205Z,82.28
2019-02-09T13:37:16.450Z,82.63
2019-02-09T13:38:15.743Z,82.63
2019-02-09T13:39:15.793Z,81.35
2019-02-09T13:40:15.760Z,82.48
2019-02-09T13:41:15.774Z,81.46
2019-02-09T13:42:15.601Z,80.63
2019-02-09T13:43:16.495Z,81.35
2019-02-09T13:44:15.656Z,82.04
2019-02-09T13:45:15.564Z,82.34
2019-02-09T13:46:15.562Z,81.97
2019-02-09T13:47:15.638Z,81.21
2019-02-09T13:48:15.563Z,80.39
2019-02-09T13:49:18.625Z,77.72
2019-02-09T13:50:15.516Z,78.92
2019-02-09T13:51:16.032Z,77.58
2019-02-09T13:52:15.504Z,74.77
2019-02-09T13:53:15.594Z,76.42
2019-02-09T13:54:15.468Z,76.72
2019-02-09T13:55:16.039Z,74.46
2019-02-09T13:56:15.435Z,72.99
2019-02-09T13:57:16.096Z,73.50
2019-02-09T13:58:15.419Z,73.06
2019-02-09T13:59:15.590Z,72.03
2019-02-09T14:00:15.437Z,72.75
2019-02-09T14:01:15.986Z,72.85
2019-02-09T14:02:16.108Z,72.44
2019-02-09T14:03:15.390Z,71.93
2019-02-09T14:04:15.358Z,71.11
2019-02-09T14:05:15.487Z,70.80
2019-02-09T14:06:15.693Z,70.39
2019-02-09T14:07:15.311Z,70.67
2019-02-09T14:08:15.318Z,70.67
2019-02-09T14:09:15.362Z,71.21
2019-02-09T14:10:15.355Z,71.08
2019-02-09T14:11:15.281Z,71.11
2019-02-09T14:12:15.535Z,70.67
2019-02-09T14:13:17.003Z,71.28
2019-02-09T14:14:15.251Z,71.31
2019-02-09T14:15:15.305Z,70.26
2019-02-09T14:16:15.249Z,71.28
2019-02-09T14:17:15.248Z,71.48
2019-02-09T14:18:15.301Z,71.31
2019-02-09T14:19:15.195Z,71.18
2019-02-09T14:20:15.175Z,71.08
2019-02-09T14:21:15.166Z,71.28
2019-02-09T14:22:15.153Z,70.97
2019-02-09T14:23:15.220Z,72.31
2019-02-09T14:24:15.131Z,72.24
2019-02-09T14:25:15.120Z,69.74
2019-02-09T14:26:15.115Z,71.48
2019-02-09T14:27:15.110Z,69.84
2019-02-09T14:28:15.100Z,68.82
2019-02-09T14:29:15.091Z,69.10
2019-02-09T14:30:15.064Z,69.23
2019-02-09T14:31:15.058Z,68.68
2019-02-09T14:32:15.061Z,69.10
2019-02-09T14:33:15.084Z,69.20
2019-02-09T14:34:18.223Z,68.89
2019-02-09T14:35:15.164Z,67.86
2019-02-09T14:36:15.068Z,67.66
2019-02-09T14:37:15.007Z,68.68
2019-02-09T14:38:14.997Z,67.97
2019-02-09T14:39:15.041Z,67.25
2019-02-09T14:40:14.980Z,66.84
2019-02-09T14:41:15.417Z,67.46
2019-02-09T14:43:51.091Z,67.66
2019-02-09T14:44:48.697Z,68.59
2019-02-09T14:45:49.292Z,67.05
2019-02-09T14:46:47.335Z,67.25
2019-02-09T14:47:47.419Z,65.81
2019-02-09T14:48:47.349Z,66.84
2019-02-09T14:51:07.660Z,66.91
2019-02-09T14:53:46.666Z,65.92
2019-02-09T14:54:46.251Z,66.81
2019-02-09T14:55:47.208Z,66.33
2019-02-09T14:59:19.818Z,65.78
2019-02-09T15:00:19.461Z,66.19
2019-02-09T15:01:19.453Z,65.37
2019-02-09T15:02:22.403Z,65.48
2019-02-09T15:03:26.163Z,66.30
2019-02-09T15:04:22.964Z,65.58
2019-02-09T15:05:19.213Z,65.78
2019-02-09T15:06:23.755Z,64.65
2019-02-09T15:07:19.211Z,64.76
2019-02-09T15:08:21.859Z,65.99
2019-02-09T15:09:19.154Z,65.78
2019-02-09T15:10:19.239Z,65.89
2019-02-09T15:11:19.312Z,66.09
2019-02-09T15:12:19.153Z,66.71
2019-02-09T15:13:19.182Z,66.84
2019-02-09T15:14:19.118Z,67.63
2019-02-09T15:15:19.084Z,67.66
2019-02-09T15:19:57.305Z,69.95
2019-02-09T15:20:56.697Z,70.15
2019-02-09T15:21:56.597Z,70.36
2019-02-09T15:22:56.709Z,69.88
2019-02-09T15:23:56.466Z,70.15
2019-02-09T15:24:56.426Z,70.70
2019-02-09T15:25:56.598Z,70.18
2019-02-09T15:26:57.401Z,70.39
2019-02-09T15:37:46.718Z,70.97
2019-02-09T15:46:05.631Z,72.24
2019-02-09T15:51:32.799Z,73.30
2019-02-09T15:52:31.509Z,74.12
2019-02-09T15:53:31.074Z,74.12
2019-02-09T15:54:30.998Z,74.36
2019-02-09T15:55:30.970Z,74.98
2019-02-09T15:56:31.194Z,75.08
2019-02-09T15:57:30.866Z,75.90
2019-02-09T16:00:40.905Z,76.14
2019-02-09T16:01:40.069Z,76.52
2019-02-09T16:08:30.276Z,77.79
2019-02-09T16:09:30.477Z,77.58
2019-02-09T16:14:06.355Z,77.89
2019-02-09T16:15:00.974Z,77.69
2019-02-09T16:16:02.708Z,78.00
2019-02-09T16:17:01.445Z,77.89
2019-02-09T16:18:00.847Z,78.20